sensor_id;sensor_type;location;lat;lon;timestamp;pressure;altitude;pressure_sealevel;temperature;humidity
32452;BME280;45528;52.102;5.242;2023-05-12T00:00:46;101324.0;;;18.68;62.97
32452;BME280;45528;52.102;5.242;2023-05-12T00:03:58;101323.0;;;18.68;63.33
32452;BME280;45528;52.102;5.242;2023-05-12T00:05:34;101325.0;;;18.63;63.48
32452;BME280;45528;52.102;5.242;2023-05-12T00:07:10;101324.0;;;18.54;63.79
32452;BME280;45528;52.102;5.242;2023-05-12T00:10:23;101326.0;;;18.5;63.75
32452;BME280;45528;52.102;5.242;2023-05-12T00:12:01;101326.0;;;18.45;64.08
32452;BME280;45528;52.102;5.242;2023-05-12T00:13:37;101322.0;;;18.48;64.09
32452;BME280;45528;52.102;5.242;2023-05-12T00:16:49;101323.0;;;18.54;64.12
32452;BME280;45528;52.102;5.242;2023-05-12T00:18:26;101317.0;;;18.11;65.09
32452;BME280;45528;52.102;5.242;2023-05-12T00:20:02;101321.0;;;18.52;64.44
32452;BME280;45528;52.102;5.242;2023-05-12T00:23:15;101318.0;;;18.52;64.7
32452;BME280;45528;52.102;5.242;2023-05-12T00:24:51;101321.0;;;18.56;64.49
32452;BME280;45528;52.102;5.242;2023-05-12T00:26:27;101318.0;;;18.55;64.58
32452;BME280;45528;52.102;5.242;2023-05-12T00:28:04;101314.0;;;18.5;64.77
32452;BME280;45528;52.102;5.242;2023-05-12T00:31:17;101314.0;;;18.43;65.13
32452;BME280;45528;52.102;5.242;2023-05-12T00:32:53;101312.0;;;18.5;64.69
32452;BME280;45528;52.102;5.242;2023-05-12T00:34:29;101310.0;;;18.37;64.97
32452;BME280;45528;52.102;5.242;2023-05-12T00:37:42;101305.0;;;18.64;64.3
32452;BME280;45528;52.102;5.242;2023-05-12T00:39:19;101307.0;;;18.72;64.1
32452;BME280;45528;52.102;5.242;2023-05-12T00:40:55;101305.0;;;18.62;64.67
32452;BME280;45528;52.102;5.242;2023-05-12T00:44:09;101303.0;;;18.53;65.08
32452;BME280;45528;52.102;5.242;2023-05-12T00:45:45;101305.0;;;18.52;65.13
32452;BME280;45528;52.102;5.242;2023-05-12T00:47:21;101305.0;;;18.5;65.62
32452;BME280;45528;52.102;5.242;2023-05-12T00:48:57;101300.0;;;18.34;65.81
32452;BME280;45528;52.102;5.242;2023-05-12T00:52:10;101300.0;;;18.3;66.16
32452;BME280;45528;52.102;5.242;2023-05-12T00:53:47;101300.0;;;18.45;66.13
32452;BME280;45528;52.102;5.242;2023-05-12T00:55:23;101299.0;;;18.41;65.87
32452;BME280;45528;52.102;5.242;2023-05-12T00:58:37;101299.0;;;18.45;66.09
32452;BME280;45528;52.102;5.242;2023-05-12T01:00:13;101299.0;;;18.59;65.85
32452;BME280;45528;52.102;5.242;2023-05-12T01:01:49;101300.0;;;18.63;65.6
32452;BME280;45528;52.102;5.242;2023-05-12T01:05:02;101299.0;;;18.5;65.97
32452;BME280;45528;52.102;5.242;2023-05-12T01:06:43;101301.0;;;18.59;65.41
32452;BME280;45528;52.102;5.242;2023-05-12T01:08:23;101294.0;;;18.55;65.75
32452;BME280;45528;52.102;5.242;2023-05-12T01:09:59;101292.0;;;18.43;66.16
32452;BME280;45528;52.102;5.242;2023-05-12T01:13:12;101288.0;;;18.36;66.17
32452;BME280;45528;52.102;5.242;2023-05-12T01:14:49;101290.0;;;18.54;65.49
32452;BME280;45528;52.102;5.242;2023-05-12T01:16:31;101284.0;;;18.39;66.03
32452;BME280;45528;52.102;5.242;2023-05-12T01:19:48;101285.0;;;18.36;66.23
32452;BME280;45528;52.102;5.242;2023-05-12T01:21:26;101282.0;;;18.25;66.36
32452;BME280;45528;52.102;5.242;2023-05-12T01:23:03;101280.0;;;18.18;66.8
32452;BME280;45528;52.102;5.242;2023-05-12T01:24:45;101275.0;;;18.11;65.83
32452;BME280;45528;52.102;5.242;2023-05-12T01:28:01;101272.0;;;18.09;66.09
32452;BME280;45528;52.102;5.242;2023-05-12T01:29:39;101276.0;;;18.37;65.72
32452;BME280;45528;52.102;5.242;2023-05-12T01:31:15;101272.0;;;18.34;65.8
32452;BME280;45528;52.102;5.242;2023-05-12T01:32:52;101269.0;;;18.09;66.67
32452;BME280;45528;52.102;5.242;2023-05-12T01:36:05;101268.0;;;18.27;66.03
32452;BME280;45528;52.102;5.242;2023-05-12T01:37:41;101271.0;;;18.25;66.42
32452;BME280;45528;52.102;5.242;2023-05-12T01:39:17;101272.0;;;18.28;66.41
32452;BME280;45528;52.102;5.242;2023-05-12T01:42:30;101268.0;;;18.29;66.52
32452;BME280;45528;52.102;5.242;2023-05-12T01:44:06;101268.0;;;18.25;66.64
32452;BME280;45528;52.102;5.242;2023-05-12T01:45:42;101266.0;;;18.3;66.41
32452;BME280;45528;52.102;5.242;2023-05-12T01:48:54;101266.0;;;18.27;66.48
32452;BME280;45528;52.102;5.242;2023-05-12T01:50:30;101264.0;;;18.36;66.41
32452;BME280;45528;52.102;5.242;2023-05-12T01:52:07;101265.0;;;18.34;66.75
32452;BME280;45528;52.102;5.242;2023-05-12T01:55:19;101263.0;;;18.39;66.44
32452;BME280;45528;52.102;5.242;2023-05-12T01:56:55;101265.0;;;18.38;66.45
32452;BME280;45528;52.102;5.242;2023-05-12T01:58:31;101267.0;;;18.34;66.85
32452;BME280;45528;52.102;5.242;2023-05-12T02:00:08;101266.0;;;18.29;66.8
32452;BME280;45528;52.102;5.242;2023-05-12T02:03:21;101258.0;;;18.43;66.61
32452;BME280;45528;52.102;5.242;2023-05-12T02:04:57;101259.0;;;18.2;67.17
32452;BME280;45528;52.102;5.242;2023-05-12T02:06:33;101262.0;;;18.41;66.59
32452;BME280;45528;52.102;5.242;2023-05-12T02:09:45;101264.0;;;18.47;66.42
32452;BME280;45528;52.102;5.242;2023-05-12T02:11:22;101266.0;;;18.48;66.3
32452;BME280;45528;52.102;5.242;2023-05-12T02:12:57;101268.0;;;18.36;66.77
32452;BME280;45528;52.102;5.242;2023-05-12T02:16:10;101266.0;;;18.41;66.58
32452;BME280;45528;52.102;5.242;2023-05-12T02:17:47;101269.0;;;18.37;66.75
32452;BME280;45528;52.102;5.242;2023-05-12T02:19:23;101264.0;;;18.28;67.13
32452;BME280;45528;52.102;5.242;2023-05-12T02:20:59;101267.0;;;18.18;67.52
32452;BME280;45528;52.102;5.242;2023-05-12T02:24:12;101266.0;;;18.11;67.87
32452;BME280;45528;52.102;5.242;2023-05-12T02:25:48;101264.0;;;18.38;67.05
32452;BME280;45528;52.102;5.242;2023-05-12T02:27:24;101261.0;;;18.06;67.95
32452;BME280;45528;52.102;5.242;2023-05-12T02:30:36;101260.0;;;18.25;67.75
32452;BME280;45528;52.102;5.242;2023-05-12T02:32:12;101260.0;;;18.36;67.16
32452;BME280;45528;52.102;5.242;2023-05-12T02:33:48;101257.0;;;18.14;67.55
32452;BME280;45528;52.102;5.242;2023-05-12T02:37:01;101260.0;;;18.2;67.64
32452;BME280;45528;52.102;5.242;2023-05-12T02:38:37;101255.0;;;18.18;67.87
32452;BME280;45528;52.102;5.242;2023-05-12T02:40:13;101261.0;;;18.09;67.64
32452;BME280;45528;52.102;5.242;2023-05-12T02:43:25;101259.0;;;18.14;67.5
32452;BME280;45528;52.102;5.242;2023-05-12T02:45:02;101256.0;;;18.03;68.22
32452;BME280;45528;52.102;5.242;2023-05-12T02:46:38;101255.0;;;18.18;68.11
32452;BME280;45528;52.102;5.242;2023-05-12T02:48:14;101255.0;;;17.81;68.77
32452;BME280;45528;52.102;5.242;2023-05-12T02:51:26;101260.0;;;18.03;68.05
32452;BME280;45528;52.102;5.242;2023-05-12T02:53:02;101255.0;;;18.18;67.91
32452;BME280;45528;52.102;5.242;2023-05-12T02:54:38;101252.0;;;17.89;68.55
32452;BME280;45528;52.102;5.242;2023-05-12T02:57:50;101250.0;;;17.91;68.91
32452;BME280;45528;52.102;5.242;2023-05-12T02:59:26;101253.0;;;18.21;67.94
32452;BME280;45528;52.102;5.242;2023-05-12T03:01:02;101252.0;;;18.27;67.85
32452;BME280;45528;52.102;5.242;2023-05-12T03:04:15;101247.0;;;18.2;67.87
32452;BME280;45528;52.102;5.242;2023-05-12T03:05:51;101244.0;;;18.22;68.02
32452;BME280;45528;52.102;5.242;2023-05-12T03:07:27;101244.0;;;18.03;68.16
32452;BME280;45528;52.102;5.242;2023-05-12T03:09:04;101239.0;;;17.57;69.52
32452;BME280;45528;52.102;5.242;2023-05-12T03:12:16;101237.0;;;17.87;68.91
32452;BME280;45528;52.102;5.242;2023-05-12T03:13:52;101241.0;;;18.18;67.87
32452;BME280;45528;52.102;5.242;2023-05-12T03:15:28;101242.0;;;17.98;68.47
32452;BME280;45528;52.102;5.242;2023-05-12T03:18:40;101244.0;;;17.95;68.2
32452;BME280;45528;52.102;5.242;2023-05-12T03:20:17;101245.0;;;17.93;68.58
32452;BME280;45528;52.102;5.242;2023-05-12T03:21:53;101241.0;;;18.0;68.22
32452;BME280;45528;52.102;5.242;2023-05-12T03:25:08;101240.0;;;17.73;68.86
32452;BME280;45528;52.102;5.242;2023-05-12T03:26:44;101235.0;;;17.73;69.02
32452;BME280;45528;52.102;5.242;2023-05-12T03:28:20;101236.0;;;17.84;68.83
32452;BME280;45528;52.102;5.242;2023-05-12T03:31:33;101232.0;;;18.0;68.3
32452;BME280;45528;52.102;5.242;2023-05-12T03:33:09;101230.0;;;17.91;68.56
32452;BME280;45528;52.102;5.242;2023-05-12T03:34:45;101234.0;;;17.95;68.58
32452;BME280;45528;52.102;5.242;2023-05-12T03:36:21;101231.0;;;17.78;68.52
32452;BME280;45528;52.102;5.242;2023-05-12T03:39:33;101230.0;;;17.34;70.08
32452;BME280;45528;52.102;5.242;2023-05-12T03:41:09;101230.0;;;17.36;70.33
32452;BME280;45528;52.102;5.242;2023-05-12T03:42:46;101225.0;;;17.52;69.67
32452;BME280;45528;52.102;5.242;2023-05-12T03:45:58;101228.0;;;17.45;69.72
32452;BME280;45528;52.102;5.242;2023-05-12T03:47:34;101224.0;;;17.23;70.03
32452;BME280;45528;52.102;5.242;2023-05-12T03:49:10;101230.0;;;17.5;69.3
32452;BME280;45528;52.102;5.242;2023-05-12T03:52:23;101227.0;;;17.07;70.81
32452;BME280;45528;52.102;5.242;2023-05-12T03:53:59;101225.0;;;17.43;70.08
32452;BME280;45528;52.102;5.242;2023-05-12T03:55:35;101225.0;;;17.75;68.72
32452;BME280;45528;52.102;5.242;2023-05-12T03:57:11;101222.0;;;17.84;68.47
32452;BME280;45528;52.102;5.242;2023-05-12T04:00:23;101222.0;;;17.56;68.58
32452;BME280;45528;52.102;5.242;2023-05-12T04:01:59;101226.0;;;17.61;68.98
32452;BME280;45528;52.102;5.242;2023-05-12T04:03:36;101224.0;;;17.81;68.45
32452;BME280;45528;52.102;5.242;2023-05-12T04:06:49;101226.0;;;17.61;69.08
32452;BME280;45528;52.102;5.242;2023-05-12T04:08:25;101223.0;;;17.47;69.91
32452;BME280;45528;52.102;5.242;2023-05-12T04:10:01;101223.0;;;17.66;68.98
32452;BME280;45528;52.102;5.242;2023-05-12T04:13:13;101223.0;;;17.36;69.66
32452;BME280;45528;52.102;5.242;2023-05-12T04:14:50;101223.0;;;17.66;69.13
32452;BME280;45528;52.102;5.242;2023-05-12T04:16:26;101219.0;;;17.66;69.13
32452;BME280;45528;52.102;5.242;2023-05-12T04:19:38;101210.0;;;17.82;68.86
32452;BME280;45528;52.102;5.242;2023-05-12T04:21:14;101215.0;;;17.89;68.55
32452;BME280;45528;52.102;5.242;2023-05-12T04:22:50;101222.0;;;17.84;68.69
32452;BME280;45528;52.102;5.242;2023-05-12T04:24:26;101228.0;;;17.5;69.62
32452;BME280;45528;52.102;5.242;2023-05-12T04:27:39;101224.0;;;17.66;69.23
32452;BME280;45528;52.102;5.242;2023-05-12T04:29:15;101226.0;;;17.64;69.44
32452;BME280;45528;52.102;5.242;2023-05-12T04:30:51;101230.0;;;17.47;69.73
32452;BME280;45528;52.102;5.242;2023-05-12T04:34:03;101230.0;;;17.88;68.99
32452;BME280;45528;52.102;5.242;2023-05-12T04:35:39;101230.0;;;17.95;68.8
32452;BME280;45528;52.102;5.242;2023-05-12T04:37:16;101230.0;;;17.72;69.27
32452;BME280;45528;52.102;5.242;2023-05-12T04:40:28;101240.0;;;17.78;69.33
32452;BME280;45528;52.102;5.242;2023-05-12T04:42:04;101242.0;;;17.89;68.92
32452;BME280;45528;52.102;5.242;2023-05-12T04:43:40;101242.0;;;17.86;69.0
32452;BME280;45528;52.102;5.242;2023-05-12T04:46:52;101245.0;;;18.11;68.38
32452;BME280;45528;52.102;5.242;2023-05-12T04:48:29;101245.0;;;18.12;68.2
32452;BME280;45528;52.102;5.242;2023-05-12T04:50:06;101251.0;;;17.87;69.12
32452;BME280;45528;52.102;5.242;2023-05-12T04:51:42;101250.0;;;17.88;69.2
32452;BME280;45528;52.102;5.242;2023-05-12T04:54:54;101253.0;;;17.78;69.69
32452;BME280;45528;52.102;5.242;2023-05-12T04:56:30;101255.0;;;18.0;69.08
32452;BME280;45528;52.102;5.242;2023-05-12T04:58:06;101255.0;;;17.93;69.11
32452;BME280;45528;52.102;5.242;2023-05-12T05:01:18;101259.0;;;18.21;68.55
32452;BME280;45528;52.102;5.242;2023-05-12T05:02:54;101259.0;;;18.12;68.58
32452;BME280;45528;52.102;5.242;2023-05-12T05:04:30;101258.0;;;18.06;69.06
32452;BME280;45528;52.102;5.242;2023-05-12T05:07:42;101263.0;;;18.27;68.38
32452;BME280;45528;52.102;5.242;2023-05-12T05:09:18;101257.0;;;17.79;69.33
32452;BME280;45528;52.102;5.242;2023-05-12T05:10:55;101272.0;;;18.11;69.05
32452;BME280;45528;52.102;5.242;2023-05-12T05:12:31;101280.0;;;18.27;68.59
32452;BME280;45528;52.102;5.242;2023-05-12T05:15:53;101278.0;;;17.91;69.99
32452;BME280;45528;52.102;5.242;2023-05-12T05:17:29;101278.0;;;18.3;68.78
32452;BME280;45528;52.102;5.242;2023-05-12T05:19:05;101278.0;;;17.98;69.87
32452;BME280;45528;52.102;5.242;2023-05-12T05:22:18;101281.0;;;18.34;68.55
32452;BME280;45528;52.102;5.242;2023-05-12T05:23:54;101290.0;;;18.25;69.3
32452;BME280;45528;52.102;5.242;2023-05-12T05:25:30;101285.0;;;18.31;68.81
32452;BME280;45528;52.102;5.242;2023-05-12T05:28:42;101290.0;;;18.27;69.11
32452;BME280;45528;52.102;5.242;2023-05-12T05:30:19;101289.0;;;18.39;68.78
32452;BME280;45528;52.102;5.242;2023-05-12T05:31:55;101293.0;;;18.48;68.49
32452;BME280;45528;52.102;5.242;2023-05-12T05:33:31;101290.0;;;18.59;68.27
32452;BME280;45528;52.102;5.242;2023-05-12T05:36:43;101294.0;;;18.71;68.05
32452;BME280;45528;52.102;5.242;2023-05-12T05:38:19;101289.0;;;18.52;68.45
32452;BME280;45528;52.102;5.242;2023-05-12T05:39:56;101293.0;;;18.66;68.03
32452;BME280;45528;52.102;5.242;2023-05-12T05:43:08;101291.0;;;18.77;67.66
32452;BME280;45528;52.102;5.242;2023-05-12T05:44:44;101294.0;;;18.54;68.23
32452;BME280;45528;52.102;5.242;2023-05-12T05:46:20;101287.0;;;18.5;68.58
32452;BME280;45528;52.102;5.242;2023-05-12T05:49:32;101289.0;;;18.68;68.38
32452;BME280;45528;52.102;5.242;2023-05-12T05:51:08;101293.0;;;18.82;67.6
32452;BME280;45528;52.102;5.242;2023-05-12T05:52:45;101295.0;;;18.97;67.02
32452;BME280;45528;52.102;5.242;2023-05-12T05:55:58;101294.0;;;18.91;67.25
32452;BME280;45528;52.102;5.242;2023-05-12T05:57:34;101296.0;;;19.05;66.87
32452;BME280;45528;52.102;5.242;2023-05-12T05:59:10;101293.0;;;19.16;66.72
32452;BME280;45528;52.102;5.242;2023-05-12T06:00:46;101297.0;;;19.02;66.81
32452;BME280;45528;52.102;5.242;2023-05-12T06:03:59;101300.0;;;19.03;66.91
32452;BME280;45528;52.102;5.242;2023-05-12T06:05:35;101303.0;;;19.2;66.73
32452;BME280;45528;52.102;5.242;2023-05-12T06:07:11;101306.0;;;18.88;67.67
32452;BME280;45528;52.102;5.242;2023-05-12T06:10:23;101312.0;;;19.11;66.89
32452;BME280;45528;52.102;5.242;2023-05-12T06:11:59;101316.0;;;18.64;68.38
32452;BME280;45528;52.102;5.242;2023-05-12T06:13:35;101320.0;;;19.06;67.33
32452;BME280;45528;52.102;5.242;2023-05-12T06:16:48;101322.0;;;18.91;67.41
32452;BME280;45528;52.102;5.242;2023-05-12T06:18:24;101323.0;;;18.71;67.87
32452;BME280;45528;52.102;5.242;2023-05-12T06:20:00;101332.0;;;18.98;67.3
32452;BME280;45528;52.102;5.242;2023-05-12T06:21:36;101327.0;;;18.95;67.3
32452;BME280;45528;52.102;5.242;2023-05-12T06:24:49;101328.0;;;19.27;66.61
32452;BME280;45528;52.102;5.242;2023-05-12T06:26:25;101326.0;;;18.86;67.41
32452;BME280;45528;52.102;5.242;2023-05-12T06:28:01;101332.0;;;19.22;66.74
32452;BME280;45528;52.102;5.242;2023-05-12T06:31:13;101335.0;;;19.25;66.77
32452;BME280;45528;52.102;5.242;2023-05-12T06:32:49;101330.0;;;19.25;66.83
32452;BME280;45528;52.102;5.242;2023-05-12T06:34:25;101333.0;;;19.09;67.28
32452;BME280;45528;52.102;5.242;2023-05-12T06:37:38;101337.0;;;19.3;66.8
32452;BME280;45528;52.102;5.242;2023-05-12T06:39:14;101341.0;;;19.45;66.42
32452;BME280;45528;52.102;5.242;2023-05-12T06:40:50;101340.0;;;19.28;66.94
32452;BME280;45528;52.102;5.242;2023-05-12T06:44:02;101337.0;;;19.36;66.7
32452;BME280;45528;52.102;5.242;2023-05-12T06:45:38;101338.0;;;19.32;67.12
32452;BME280;45528;52.102;5.242;2023-05-12T06:47:14;101338.0;;;19.16;67.1
32452;BME280;45528;52.102;5.242;2023-05-12T06:48:51;101346.0;;;19.41;66.67
32452;BME280;45528;52.102;5.242;2023-05-12T06:52:03;101346.0;;;19.54;66.27
32452;BME280;45528;52.102;5.242;2023-05-12T06:53:40;101347.0;;;19.45;66.66
32452;BME280;45528;52.102;5.242;2023-05-12T06:55:16;101344.0;;;19.34;66.8
32452;BME280;45528;52.102;5.242;2023-05-12T06:58:28;101356.0;;;19.59;66.69
32452;BME280;45528;52.102;5.242;2023-05-12T07:00:06;101353.0;;;19.48;67.02
32452;BME280;45528;52.102;5.242;2023-05-12T07:01:43;101356.0;;;19.39;67.25
32452;BME280;45528;52.102;5.242;2023-05-12T07:04:55;101361.0;;;19.64;66.37
32452;BME280;45528;52.102;5.242;2023-05-12T07:06:31;101364.0;;;19.93;65.52
32452;BME280;45528;52.102;5.242;2023-05-12T07:08:07;101363.0;;;20.0;65.44
32452;BME280;45528;52.102;5.242;2023-05-12T07:09:44;101368.0;;;19.75;65.89
32452;BME280;45528;52.102;5.242;2023-05-12T07:12:56;101369.0;;;20.0;65.47
32452;BME280;45528;52.102;5.242;2023-05-12T07:14:32;101366.0;;;19.84;65.66
32452;BME280;45528;52.102;5.242;2023-05-12T07:16:08;101367.0;;;19.86;65.7
32452;BME280;45528;52.102;5.242;2023-05-12T07:19:20;101367.0;;;20.22;65.1
32452;BME280;45528;52.102;5.242;2023-05-12T07:20:57;101370.0;;;20.34;65.14
32452;BME280;45528;52.102;5.242;2023-05-12T07:22:33;101372.0;;;20.36;63.99
32452;BME280;45528;52.102;5.242;2023-05-12T07:25:45;101371.0;;;20.13;65.08
32452;BME280;45528;52.102;5.242;2023-05-12T07:27:21;101375.0;;;20.41;64.08
32452;BME280;45528;52.102;5.242;2023-05-12T07:28:57;101375.0;;;20.53;64.17
32452;BME280;45528;52.102;5.242;2023-05-12T07:32:11;101376.0;;;20.36;64.3
32452;BME280;45528;52.102;5.242;2023-05-12T07:33:47;101377.0;;;20.45;64.58
32452;BME280;45528;52.102;5.242;2023-05-12T07:35:23;101373.0;;;20.45;64.52
32452;BME280;45528;52.102;5.242;2023-05-12T07:36:59;101378.0;;;20.34;64.33
32452;BME280;45528;52.102;5.242;2023-05-12T07:40:11;101377.0;;;20.49;64.58
32452;BME280;45528;52.102;5.242;2023-05-12T07:41:48;101383.0;;;20.71;64.09
32452;BME280;45528;52.102;5.242;2023-05-12T07:43:23;101389.0;;;20.79;64.14
32452;BME280;45528;52.102;5.242;2023-05-12T07:46:36;101378.0;;;21.01;63.42
32452;BME280;45528;52.102;5.242;2023-05-12T07:48:12;101387.0;;;21.18;62.43
32452;BME280;45528;52.102;5.242;2023-05-12T07:49:48;101392.0;;;21.43;62.5
32452;BME280;45528;52.102;5.242;2023-05-12T07:53:00;101388.0;;;20.93;62.57
32452;BME280;45528;52.102;5.242;2023-05-12T07:54:36;101384.0;;;21.21;62.77
32452;BME280;45528;52.102;5.242;2023-05-12T07:56:13;101386.0;;;21.45;61.78
32452;BME280;45528;52.102;5.242;2023-05-12T07:57:49;101390.0;;;21.27;61.34
32452;BME280;45528;52.102;5.242;2023-05-12T08:01:01;101390.0;;;21.35;61.41
32452;BME280;45528;52.102;5.242;2023-05-12T08:02:37;101394.0;;;21.1;61.72
32452;BME280;45528;52.102;5.242;2023-05-12T08:04:14;101405.0;;;21.11;62.01
32452;BME280;45528;52.102;5.242;2023-05-12T08:07:27;101397.0;;;21.1;61.39
32452;BME280;45528;52.102;5.242;2023-05-12T08:09:03;101393.0;;;21.25;61.49
32452;BME280;45528;52.102;5.242;2023-05-12T08:10:39;101395.0;;;21.45;60.89
32452;BME280;45528;52.102;5.242;2023-05-12T08:13:52;101399.0;;;21.42;60.62
32452;BME280;45528;52.102;5.242;2023-05-12T08:15:28;101392.0;;;21.43;60.76
32452;BME280;45528;52.102;5.242;2023-05-12T08:17:04;101391.0;;;21.7;60.19
32452;BME280;45528;52.102;5.242;2023-05-12T08:20:17;101389.0;;;21.71;60.54
32452;BME280;45528;52.102;5.242;2023-05-12T08:21:53;101395.0;;;21.68;60.01
32452;BME280;45528;52.102;5.242;2023-05-12T08:23:29;101399.0;;;21.79;60.32
32452;BME280;45528;52.102;5.242;2023-05-12T08:25:06;101402.0;;;22.11;59.61
32452;BME280;45528;52.102;5.242;2023-05-12T08:28:19;101401.0;;;22.26;58.71
32452;BME280;45528;52.102;5.242;2023-05-12T08:29:54;101402.0;;;22.32;59.7
32452;BME280;45528;52.102;5.242;2023-05-12T08:31:31;101410.0;;;22.57;58.64
32452;BME280;45528;52.102;5.242;2023-05-12T08:34:43;101409.0;;;22.83;57.62
32452;BME280;45528;52.102;5.242;2023-05-12T08:36:19;101415.0;;;22.55;57.2
32452;BME280;45528;52.102;5.242;2023-05-12T08:37:55;101414.0;;;22.74;56.91
32452;BME280;45528;52.102;5.242;2023-05-12T08:41:14;101413.0;;;22.77;56.41
32452;BME280;45528;52.102;5.242;2023-05-12T08:43:06;101417.0;;;23.2;56.74
32452;BME280;45528;52.102;5.242;2023-05-12T08:44:53;101423.0;;;23.06;55.57
32452;BME280;45528;52.102;5.242;2023-05-12T08:46:30;101416.0;;;22.71;55.69
32452;BME280;45528;52.102;5.242;2023-05-12T08:48:09;101428.0;;;22.6;55.57
32452;BME280;45528;52.102;5.242;2023-05-12T08:51:31;101421.0;;;22.44;56.26
32452;BME280;45528;52.102;5.242;2023-05-12T08:53:09;101430.0;;;22.87;55.91
32452;BME280;45528;52.102;5.242;2023-05-12T08:54:46;101427.0;;;23.11;55.39
32452;BME280;45528;52.102;5.242;2023-05-12T08:56:24;101430.0;;;23.17;54.8
32452;BME280;45528;52.102;5.242;2023-05-12T08:59:41;101437.0;;;23.57;53.65
32452;BME280;45528;52.102;5.242;2023-05-12T09:01:19;101436.0;;;23.21;52.96
32452;BME280;45528;52.102;5.242;2023-05-12T09:02:55;101442.0;;;23.43;53.11
32452;BME280;45528;52.102;5.242;2023-05-12T09:06:09;101437.0;;;23.51;53.63
32452;BME280;45528;52.102;5.242;2023-05-12T09:07:47;101438.0;;;23.82;53.2
32452;BME280;45528;52.102;5.242;2023-05-12T09:09:25;101443.0;;;24.08;52.2
32452;BME280;45528;52.102;5.242;2023-05-12T09:11:03;101440.0;;;24.27;51.5
32452;BME280;45528;52.102;5.242;2023-05-12T09:14:24;101443.0;;;23.94;51.19
32452;BME280;45528;52.102;5.242;2023-05-12T09:16:01;101442.0;;;23.99;51.44
32452;BME280;45528;52.102;5.242;2023-05-12T09:17:39;101446.0;;;23.77;51.07
32452;BME280;45528;52.102;5.242;2023-05-12T09:20:55;101449.0;;;24.3;51.08
32452;BME280;45528;52.102;5.242;2023-05-12T09:22:32;101444.0;;;24.54;50.77
32452;BME280;45528;52.102;5.242;2023-05-12T09:24:08;101448.0;;;24.33;49.92
32452;BME280;45528;52.102;5.242;2023-05-12T09:25:45;101448.0;;;24.55;50.25
32452;BME280;45528;52.102;5.242;2023-05-12T09:29:04;101449.0;;;24.41;48.07
32452;BME280;45528;52.102;5.242;2023-05-12T09:30:41;101455.0;;;24.2;48.19
32452;BME280;45528;52.102;5.242;2023-05-12T09:32:17;101449.0;;;24.2;48.58
32452;BME280;45528;52.102;5.242;2023-05-12T09:34:06;101456.0;;;24.44;49.02
32452;BME280;45528;52.102;5.242;2023-05-12T09:37:29;101455.0;;;24.29;47.7
32452;BME280;45528;52.102;5.242;2023-05-12T09:39:07;101451.0;;;24.6;47.46
32452;BME280;45528;52.102;5.242;2023-05-12T09:40:45;101455.0;;;24.67;47.04
32452;BME280;45528;52.102;5.242;2023-05-12T09:44:00;101457.0;;;24.86;47.63
32452;BME280;45528;52.102;5.242;2023-05-12T09:45:37;101461.0;;;24.9;47.52
32452;BME280;45528;52.102;5.242;2023-05-12T09:47:13;101463.0;;;24.87;47.25
32452;BME280;45528;52.102;5.242;2023-05-12T09:48:49;101467.0;;;25.19;47.77
32452;BME280;45528;52.102;5.242;2023-05-12T09:52:03;101472.0;;;24.94;48.16
32452;BME280;45528;52.102;5.242;2023-05-12T09:53:40;101474.0;;;25.02;47.68
32452;BME280;45528;52.102;5.242;2023-05-12T09:55:16;101473.0;;;24.94;46.81
32452;BME280;45528;52.102;5.242;2023-05-12T09:58:33;101473.0;;;24.8;46.73
32452;BME280;45528;52.102;5.242;2023-05-12T10:00:12;101472.0;;;24.89;47.6
32452;BME280;45528;52.102;5.242;2023-05-12T10:01:49;101477.0;;;25.21;47.59
32452;BME280;45528;52.102;5.242;2023-05-12T10:03:28;101478.0;;;24.96;47.1
32452;BME280;45528;52.102;5.242;2023-05-12T10:06:50;101480.0;;;25.04;46.36
32452;BME280;45528;52.102;5.242;2023-05-12T10:08:31;101483.0;;;25.46;46.03
32452;BME280;45528;52.102;5.242;2023-05-12T10:10:10;101481.0;;;25.29;44.98
32452;BME280;45528;52.102;5.242;2023-05-12T10:11:49;101480.0;;;25.32;44.8
32452;BME280;45528;52.102;5.242;2023-05-12T10:15:06;101481.0;;;25.05;44.53
32452;BME280;45528;52.102;5.242;2023-05-12T10:16:45;101484.0;;;25.53;45.37
32452;BME280;45528;52.102;5.242;2023-05-12T10:18:22;101485.0;;;25.06;44.12
32452;BME280;45528;52.102;5.242;2023-05-12T10:21:36;101477.0;;;24.75;45.01
32452;BME280;45528;52.102;5.242;2023-05-12T10:23:17;101484.0;;;25.21;45.06
32452;BME280;45528;52.102;5.242;2023-05-12T10:24:54;101484.0;;;25.46;45.09
32452;BME280;45528;52.102;5.242;2023-05-12T10:26:32;101486.0;;;25.11;44.86
32452;BME280;45528;52.102;5.242;2023-05-12T10:29:46;101485.0;;;24.46;45.0
32452;BME280;45528;52.102;5.242;2023-05-12T10:31:23;101478.0;;;24.44;44.71
32452;BME280;45528;52.102;5.242;2023-05-12T10:32:59;101476.0;;;24.85;45.21
32452;BME280;45528;52.102;5.242;2023-05-12T10:36:16;101478.0;;;25.19;43.95
32452;BME280;45528;52.102;5.242;2023-05-12T10:37:53;101477.0;;;25.79;45.69
32452;BME280;45528;52.102;5.242;2023-05-12T10:39:31;101482.0;;;25.69;44.5
32452;BME280;45528;52.102;5.242;2023-05-12T10:41:06;101480.0;;;25.89;44.34
32452;BME280;45528;52.102;5.242;2023-05-12T10:44:25;101483.0;;;26.24;43.56
32452;BME280;45528;52.102;5.242;2023-05-12T10:46:07;101474.0;;;26.53;42.28
32452;BME280;45528;52.102;5.242;2023-05-12T10:47:44;101478.0;;;26.34;42.19
32452;BME280;45528;52.102;5.242;2023-05-12T10:51:07;101486.0;;;26.34;41.49
32452;BME280;45528;52.102;5.242;2023-05-12T10:52:51;101478.0;;;26.48;42.01
32452;BME280;45528;52.102;5.242;2023-05-12T10:54:28;101483.0;;;26.19;42.52
32452;BME280;45528;52.102;5.242;2023-05-12T10:56:12;101482.0;;;26.44;42.07
32452;BME280;45528;52.102;5.242;2023-05-12T10:57:48;101482.0;;;26.33;42.16
32452;BME280;45528;52.102;5.242;2023-05-12T11:01:04;101481.0;;;26.01;41.46
32452;BME280;45528;52.102;5.242;2023-05-12T11:02:48;101480.0;;;26.24;42.51
32452;BME280;45528;52.102;5.242;2023-05-12T11:04:37;101477.0;;;25.73;42.99
32452;BME280;45528;52.102;5.242;2023-05-12T11:06:17;101482.0;;;25.74;42.41